createdAt,value
2019-04-06T00:04:15.814Z,28.98
2019-04-06T00:09:19.740Z,28.00
2019-04-06T00:14:23.626Z,29.60
2019-04-06T00:19:27.533Z,31.85
2019-04-06T00:24:31.414Z,33.33
2019-04-06T00:29:35.357Z,31.10
2019-04-06T00:34:39.436Z,29.70
2019-04-06T00:39:43.406Z,28.92
2019-04-06T00:44:47.295Z,31.37
2019-04-06T00:49:51.171Z,32.08
2019-04-06T00:54:55.073Z,33.67
2019-04-06T00:59:58.908Z,35.43
2019-04-06T01:05:02.803Z,37.08
2019-04-06T01:10:06.917Z,32.48
2019-04-06T01:15:11.021Z,37.60
2019-04-06T01:20:15.038Z,30.97
2019-04-06T01:25:19.944Z,33.90
2019-04-06T01:30:23.852Z,34.53
2019-04-06T01:35:27.765Z,34.03
2019-04-06T01:40:31.617Z,35.40
2019-04-06T01:45:35.526Z,37.95
2019-04-06T01:50:39.443Z,30.10
2019-04-06T01:55:43.344Z,33.45
2019-04-06T02:00:55.043Z,29.50
2019-04-06T02:05:58.967Z,35.95
2019-04-06T02:11:02.858Z,32.55
2019-04-06T02:16:06.790Z,34.05
2019-04-06T02:21:10.701Z,34.43
2019-04-06T02:26:14.627Z,32.03
2019-04-06T02:31:22.919Z,34.23
2019-04-06T02:36:34.248Z,36.80
2019-04-06T02:41:48.729Z,40.00
2019-04-06T02:46:52.634Z,34.73
2019-04-06T02:51:56.552Z,36.28
2019-04-06T02:57:00.398Z,37.95
2019-04-06T03:02:04.304Z,40.55
2019-04-06T03:07:08.215Z,38.73
2019-04-06T03:12:13.168Z,34.05
2019-04-06T03:17:17.094Z,39.03
2019-04-06T03:22:20.940Z,37.63
2019-04-06T03:27:25.973Z,38.53
2019-04-06T03:32:30.327Z,32.05
2019-04-06T03:37:34.400Z,40.65
2019-04-06T03:42:38.301Z,41.00
2019-04-06T03:47:42.146Z,38.35
2019-04-06T03:52:46.059Z,39.00
2019-04-06T03:57:49.860Z,47.10
2019-04-06T04:02:53.724Z,53.87
2019-04-06T04:07:57.783Z,49.10
2019-04-06T04:13:01.709Z,44.05
2019-04-06T04:18:05.864Z,47.08
2019-04-06T04:23:10.043Z,40.35
2019-04-06T04:28:13.920Z,45.73
2019-04-06T04:33:17.803Z,38.85
2019-04-06T04:38:21.675Z,39.45
2019-04-06T04:43:25.690Z,43.20
2019-04-06T04:48:29.617Z,36.10
2019-04-06T04:53:33.498Z,43.68
2019-04-06T04:58:37.374Z,41.02
2019-04-06T05:03:41.241Z,39.50
2019-04-06T05:08:45.163Z,41.40
2019-04-06T05:13:49.032Z,37.98
2019-04-06T05:18:52.922Z,41.23
2019-04-06T05:23:56.819Z,38.92
2019-04-06T05:29:00.686Z,41.70
2019-04-06T05:34:04.695Z,44.00
2019-04-06T05:39:08.586Z,42.40
2019-04-06T05:44:12.387Z,49.45
2019-04-06T05:49:16.358Z,97.85
2019-04-06T05:54:20.230Z,49.08
2019-04-06T05:59:24.104Z,38.98
2019-04-06T06:04:28.114Z,37.50
2019-04-06T06:09:32.182Z,37.13
2019-04-06T06:14:36.410Z,41.70
2019-04-06T06:19:40.432Z,39.75
2019-04-06T06:24:44.313Z,35.65
2019-04-06T06:29:48.205Z,33.80
2019-04-06T06:34:52.071Z,41.00
2019-04-06T06:39:55.994Z,39.23
2019-04-06T06:45:00.054Z,38.35
2019-04-06T06:50:06.244Z,41.28
2019-04-06T06:55:10.303Z,35.20
2019-04-06T07:00:14.516Z,38.55
2019-04-06T07:05:19.795Z,36.30
2019-04-06T07:10:23.729Z,36.13
2019-04-06T07:15:27.590Z,33.15
2019-04-06T07:20:31.578Z,36.23
2019-04-06T07:25:35.480Z,35.55
2019-04-06T07:30:39.418Z,36.50
2019-04-06T07:35:43.520Z,36.60
2019-04-06T07:40:47.780Z,32.28
2019-04-06T07:45:51.863Z,34.55
2019-04-06T07:50:56.120Z,38.65
2019-04-06T07:56:00.038Z,32.20
2019-04-06T08:01:04.971Z,33.10
2019-04-06T08:06:08.951Z,38.75
2019-04-06T08:11:12.993Z,32.53
2019-04-06T08:16:16.881Z,27.35
2019-04-06T08:21:20.919Z,28.77
2019-04-06T08:26:25.156Z,32.03
2019-04-06T08:31:29.205Z,31.42
2019-04-06T08:36:33.418Z,28.52
2019-04-06T08:41:37.184Z,30.02
2019-04-06T08:46:41.116Z,36.03
2019-04-06T08:51:45.363Z,29.95
2019-04-06T08:56:49.563Z,33.13
2019-04-06T09:01:53.511Z,30.50
2019-04-06T09:06:57.457Z,33.35
2019-04-06T09:12:01.412Z,31.60
2019-04-06T09:17:05.649Z,36.28
2019-04-06T09:22:09.564Z,28.27
2019-04-06T09:27:13.509Z,27.67
2019-04-06T09:32:17.625Z,31.20
2019-04-06T09:37:22.729Z,34.83
2019-04-06T09:42:26.814Z,30.48
2019-04-06T09:47:32.407Z,32.23
2019-04-06T09:52:38.280Z,31.68
2019-04-06T09:57:52.931Z,32.20
2019-04-06T10:03:13.773Z,26.75
2019-04-06T10:08:28.151Z,27.77
2019-04-06T10:13:46.610Z,28.60
2019-04-06T10:18:54.849Z,29.10
2019-04-06T10:24:13.121Z,33.48
2019-04-06T10:29:24.819Z,27.37
2019-04-06T10:34:36.323Z,29.27
2019-04-06T10:39:51.291Z,28.83
2019-04-06T10:44:59.656Z,24.00
2019-04-06T10:50:08.031Z,31.57
2019-04-06T10:55:16.483Z,24.45
2019-04-06T11:00:22.083Z,26.70
2019-04-06T11:05:45.801Z,25.08
2019-04-06T11:11:07.789Z,23.60
2019-04-06T11:16:13.554Z,29.12
2019-04-06T11:21:35.535Z,25.05
2019-04-06T11:26:56.232Z,19.95
2019-04-06T11:32:07.706Z,30.88
2019-04-06T11:37:18.943Z,27.10
2019-04-06T11:42:30.297Z,25.88
2019-04-06T11:47:39.023Z,24.82
2019-04-06T11:52:44.767Z,26.07
2019-04-06T11:57:53.401Z,23.07
2019-04-06T12:03:17.187Z,26.05
2019-04-06T12:08:31.463Z,23.50
2019-04-06T12:13:48.694Z,23.27
2019-04-06T12:18:59.777Z,32.20
2019-04-06T12:24:07.993Z,27.25
2019-04-06T12:29:16.940Z,21.70
2019-04-06T12:34:39.331Z,29.30
2019-04-06T12:39:53.398Z,25.25
2019-04-06T12:44:54.466Z,32.85
2019-04-06T12:50:16.513Z,28.87
2019-04-06T12:55:40.508Z,29.27
2019-04-06T13:00:52.437Z,23.32
2019-04-06T13:05:54.514Z,20.30
2019-04-06T13:11:00.067Z,20.20
2019-04-06T13:16:21.919Z,22.80
2019-04-06T13:21:33.505Z,21.65
2019-04-06T13:26:45.127Z,19.32
2019-04-06T13:31:50.793Z,19.42
2019-04-06T13:37:02.287Z,29.48
2019-04-06T13:42:23.539Z,25.75
2019-04-06T13:47:29.608Z,20.75
2019-04-06T13:52:54.032Z,21.48
2019-04-06T13:58:20.899Z,17.80
2019-04-06T14:03:41.703Z,22.30
2019-04-06T14:08:52.996Z,19.65
2019-04-06T14:14:10.375Z,20.70
2019-04-06T14:19:33.033Z,36.10
2019-04-06T14:24:55.575Z,25.35
2019-04-06T14:30:09.584Z,38.48
2019-04-06T14:35:20.912Z,39.40
2019-04-06T14:40:32.090Z,21.65
2019-04-06T14:45:37.847Z,21.42
2019-04-06T14:50:43.461Z,25.30
2019-04-06T14:55:51.536Z,31.70
2019-04-06T15:00:56.997Z,23.77
2019-04-06T15:06:14.256Z,25.50
2019-04-06T15:11:22.716Z,27.48
2019-04-06T15:16:45.160Z,28.77
2019-04-06T15:21:54.915Z,35.23
2019-04-06T15:27:03.329Z,31.97
2019-04-06T15:32:08.882Z,27.53
2019-04-06T15:37:30.473Z,24.90
2019-04-06T15:42:42.101Z,30.68
2019-04-06T15:48:05.590Z,44.03
2019-04-06T15:53:11.057Z,35.38
2019-04-06T15:58:17.068Z,29.02
2019-04-06T16:03:39.439Z,38.70
2019-04-06T16:08:56.508Z,30.43
2019-04-06T16:14:17.787Z,35.23
2019-04-06T16:19:29.572Z,27.27
2019-04-06T16:24:37.796Z,24.37
2019-04-06T16:29:49.264Z,25.97
2019-04-06T16:35:13.294Z,25.00
2019-04-06T16:40:30.761Z,21.37
2019-04-06T16:45:42.768Z,27.10
2019-04-06T16:51:03.107Z,21.27
2019-04-06T16:56:25.409Z,24.00
2019-04-06T17:01:39.962Z,26.10
2019-04-06T17:07:03.693Z,41.02
2019-04-06T17:12:09.528Z,41.30
2019-04-06T17:17:17.836Z,38.80
2019-04-06T17:22:39.526Z,34.05
2019-04-06T17:27:45.297Z,43.78
2019-04-06T17:33:02.803Z,57.03
2019-04-06T17:38:11.064Z,49.45
2019-04-06T17:43:33.750Z,49.35
2019-04-06T17:48:55.809Z,53.23
2019-04-06T17:54:01.594Z,77.90
2019-04-06T17:59:23.352Z,78.47
2019-04-06T18:04:45.477Z,61.98
2019-04-06T18:09:56.683Z,47.08
2019-04-06T18:15:00.922Z,46.18
2019-04-06T18:20:07.439Z,45.52
2019-04-06T18:25:11.327Z,51.65
2019-04-06T18:30:15.674Z,40.70
2019-04-06T18:35:19.666Z,44.58
2019-04-06T18:40:25.019Z,59.08
2019-04-06T18:45:30.273Z,62.62
2019-04-06T18:50:37.691Z,70.50
2019-04-06T18:55:40.097Z,81.45
2019-04-06T19:00:44.522Z,124.00
2019-04-06T19:05:50.818Z,90.15
2019-04-06T19:10:56.050Z,59.58
2019-04-06T19:16:06.296Z,43.83
2019-04-06T19:21:23.055Z,37.35
2019-04-06T19:26:26.901Z,32.05
2019-04-06T19:31:30.765Z,32.03
2019-04-06T19:36:34.579Z,33.45
2019-04-06T19:41:38.453Z,40.95
2019-04-06T19:46:42.388Z,26.27
2019-04-06T19:51:46.573Z,35.10
2019-04-06T19:56:50.548Z,42.20
2019-04-06T20:01:54.778Z,35.23
2019-04-06T20:06:58.688Z,48.20
2019-04-06T20:12:05.675Z,52.03
2019-04-06T20:17:08.455Z,33.30
2019-04-06T20:22:12.696Z,41.80
2019-04-06T20:27:16.610Z,43.95
2019-04-06T20:32:20.495Z,111.88
2019-04-06T20:37:24.365Z,109.37
2019-04-06T20:42:28.281Z,39.88
2019-04-06T20:47:32.177Z,29.95
2019-04-06T20:52:36.117Z,27.35
2019-04-06T20:57:40.473Z,26.85
2019-04-06T21:02:45.159Z,34.18
2019-04-06T21:07:49.521Z,34.88
2019-04-06T21:12:53.972Z,32.70
2019-04-06T21:17:58.039Z,34.95
2019-04-06T21:23:05.084Z,39.45
2019-04-06T21:28:14.376Z,42.38
2019-04-06T21:33:18.604Z,43.02
2019-04-06T21:38:26.198Z,37.00
2019-04-06T21:43:31.086Z,34.23
2019-04-06T21:48:43.390Z,31.15
2019-04-06T21:53:47.950Z,34.38
2019-04-06T21:58:52.036Z,33.85
2019-04-06T22:03:55.940Z,40.23
2019-04-06T22:09:00.377Z,40.38
2019-04-06T22:14:04.572Z,40.73
2019-04-06T22:19:09.422Z,41.42
2019-04-06T22:24:14.991Z,34.25
2019-04-06T22:29:19.422Z,34.73
2019-04-06T22:34:34.753Z,30.95
2019-04-06T22:39:30.336Z,33.55
2019-04-06T22:44:34.758Z,32.00
2019-04-06T22:49:38.791Z,29.77
2019-04-06T22:54:42.700Z,30.37
2019-04-06T22:59:46.568Z,26.45
2019-04-06T23:04:54.931Z,29.72
2019-04-06T23:09:58.810Z,29.80
2019-04-06T23:15:02.694Z,35.33
2019-04-06T23:20:06.676Z,34.88
2019-04-06T23:25:10.943Z,35.03
2019-04-06T23:30:14.910Z,33.60
2019-04-06T23:35:18.775Z,34.18
2019-04-06T23:40:22.675Z,35.58
2019-04-06T23:45:26.528Z,33.33
2019-04-06T23:50:30.330Z,31.37
2019-04-06T23:55:34.193Z,34.20
